PWSweather.com
Personal Weather Stations
Station Observations
OBERT
Bodensee Hinterland, OberteuringenDE

Bodensee HinterlandOberteuringenDE

Lat: 47.714675, Lon: 9.44447

Elevation: 1427

Station Type: Wunder Weather Station

High Low Average
Temperature 40.4°F4.7°C 27.8°F-2.3°C 35.2°F1.8°C
Dew Point 40.4°F4.7°C -0.1°F-17.8°C 25.8°F-3.4°C
Winds 9.0 mph 14.5 kmh Calm Calm 3.0 mph S4.8 kmh S
Wind Gusts 14.6 mph23.5 kmh -- 5.0 mph8.0 kmh
Humidity 100% -5% 72%
Pressure 29.81 in1009.5 mb 29.57 in1001.4 mb -
Precipitation 0.00 in0.0 mm - -
Hour Temp Dew Point Humidity Winds Wind Gusts Pressure Precip Precip Rate Daily Precip Total
12:09 AM 30.0°F-1.1°C 30.0°F-1.1°C 100% 0.1 mph WSW0.2 kmh WSW 3.7 mph6.0 kmh 29.74 in1007.1 mb 0.00 in0.0 mm 0.00 in0.0 mm 0.00 in0.0 mm
12:39 AM 29.3°F-1.5°C 29.3°F-1.5°C 100% Calm Calm 0.6 mph1.0 kmh 29.75 in1007.5 mb 0.00 in0.0 mm 0.00 in0.0 mm 0.00 in0.0 mm
01:09 AM 28.0°F-2.2°C 28.0°F-2.2°C 100% Calm Calm -- 29.74 in1007.1 mb 0.00 in0.0 mm 0.00 in0.0 mm 0.00 in0.0 mm
01:39 AM 27.8°F-2.3°C 27.8°F-2.3°C 100% Calm Calm -- 29.75 in1007.5 mb 0.00 in0.0 mm 0.00 in0.0 mm 0.00 in0.0 mm
02:09 AM 28.0°F-2.2°C 28.0°F-2.2°C 100% Calm Calm -- 29.76 in1007.8 mb 0.00 in0.0 mm 0.00 in0.0 mm 0.00 in0.0 mm
02:39 AM 29.4°F-1.4°C 29.4°F-1.4°C 100% Calm Calm -- 29.76 in1007.8 mb 0.00 in0.0 mm 0.00 in0.0 mm 0.00 in0.0 mm
03:09 AM 30.0°F-1.1°C 30.0°F-1.1°C 100% Calm Calm -- 29.78 in1008.5 mb 0.00 in0.0 mm 0.00 in0.0 mm 0.00 in0.0 mm
03:39 AM 31.4°F-0.3°C 31.4°F-0.3°C 100% Calm Calm -- 29.77 in1008.1 mb 0.00 in0.0 mm 0.00 in0.0 mm 0.00 in0.0 mm
04:09 AM 32.0°F0.0°C 32.0°F0.0°C 100% Calm Calm 1.5 mph2.4 kmh 29.78 in1008.5 mb 0.00 in0.0 mm 0.00 in0.0 mm 0.00 in0.0 mm
04:39 AM 32.3°F0.2°C 32.3°F0.2°C 100% Calm Calm -- 29.78 in1008.5 mb 0.00 in0.0 mm 0.00 in0.0 mm 0.00 in0.0 mm
05:09 AM 32.9°F0.5°C -0.1°F-17.8°C -5% Calm Calm 1.5 mph2.4 kmh 29.79 in1008.8 mb 0.00 in0.0 mm 0.00 in0.0 mm 0.00 in0.0 mm
05:39 AM 33.4°F0.8°C -0.1°F-17.8°C -5% Calm Calm -- 29.78 in1008.5 mb 0.00 in0.0 mm 0.00 in0.0 mm 0.00 in0.0 mm
06:09 AM 33.8°F1.0°C -0.1°F-17.8°C -5% Calm Calm -- 29.78 in1008.5 mb 0.00 in0.0 mm 0.00 in0.0 mm 0.00 in0.0 mm
06:39 AM 34.1°F1.2°C -0.1°F-17.8°C -5% Calm Calm -- 29.79 in1008.8 mb 0.00 in0.0 mm 0.00 in0.0 mm 0.00 in0.0 mm
07:09 AM 34.1°F1.2°C -0.1°F-17.8°C -5% Calm Calm -- 29.79 in1008.8 mb 0.00 in0.0 mm 0.00 in0.0 mm 0.00 in0.0 mm
07:39 AM 34.5°F1.4°C -0.1°F-17.8°C -5% Calm Calm -- 29.79 in1008.8 mb 0.00 in0.0 mm 0.00 in0.0 mm 0.00 in0.0 mm
07:52 AM 34.7°F1.5°C -0.1°F-17.8°C -5% Calm Calm -- 29.80 in1009.1 mb 0.00 in0.0 mm 0.00 in0.0 mm 0.00 in0.0 mm
08:22 AM 35.0°F1.7°C -0.1°F-17.8°C -5% 0.1 mph WSW0.2 kmh WSW 1.8 mph2.9 kmh 29.81 in1009.5 mb 0.00 in0.0 mm 0.00 in0.0 mm 0.00 in0.0 mm
08:52 AM 35.7°F2.1°C -0.1°F-17.8°C -4% Calm Calm -- 29.81 in1009.5 mb 0.00 in0.0 mm 0.00 in0.0 mm 0.00 in0.0 mm
09:22 AM 36.5°F2.5°C -0.1°F-17.8°C -4% Calm Calm 0.6 mph1.0 kmh 29.81 in1009.5 mb 0.00 in0.0 mm 0.00 in0.0 mm 0.00 in0.0 mm
09:52 AM 37.5°F3.1°C -0.1°F-17.8°C -4% Calm Calm -- 29.80 in1009.1 mb 0.00 in0.0 mm 0.00 in0.0 mm 0.00 in0.0 mm
10:22 AM 38.6°F3.7°C -0.1°F-17.8°C -4% Calm Calm -- 29.80 in1009.1 mb 0.00 in0.0 mm 0.00 in0.0 mm 0.00 in0.0 mm
10:52 AM 39.3°F4.1°C -0.1°F-17.8°C -4% 1.5 mph S2.4 kmh S 3.7 mph6.0 kmh 29.80 in1009.1 mb 0.00 in0.0 mm 0.00 in0.0 mm 0.00 in0.0 mm
11:22 AM 40.1°F4.5°C 40.1°F4.5°C 100% 2.0 mph SSE3.2 kmh SSE 5.3 mph8.5 kmh 29.78 in1008.5 mb 0.00 in0.0 mm 0.00 in0.0 mm 0.00 in0.0 mm
11:52 AM 39.2°F4.0°C 39.2°F4.0°C 100% 2.6 mph SE4.2 kmh SE 5.9 mph9.5 kmh 29.77 in1008.1 mb 0.00 in0.0 mm 0.00 in0.0 mm 0.00 in0.0 mm
12:22 PM 40.1°F4.5°C 40.1°F4.5°C 100% 3.0 mph SE4.8 kmh SE 5.9 mph9.5 kmh 29.75 in1007.5 mb 0.00 in0.0 mm 0.00 in0.0 mm 0.00 in0.0 mm
12:52 PM 40.4°F4.7°C 40.4°F4.7°C 100% 0.5 mph SSW0.8 kmh SSW 6.2 mph10.0 kmh 29.74 in1007.1 mb 0.00 in0.0 mm 0.00 in0.0 mm 0.00 in0.0 mm
01:22 PM 40.4°F4.7°C 40.4°F4.7°C 100% 0.8 mph S1.3 kmh S 6.2 mph10.0 kmh 29.73 in1006.8 mb 0.00 in0.0 mm 0.00 in0.0 mm 0.00 in0.0 mm
01:52 PM 39.7°F4.3°C 39.7°F4.3°C 100% 4.6 mph SE7.4 kmh SE 6.5 mph10.5 kmh 29.71 in1006.1 mb 0.00 in0.0 mm 0.00 in0.0 mm 0.00 in0.0 mm
02:22 PM 39.3°F4.1°C 39.3°F4.1°C 100% 6.1 mph S9.8 kmh S 11.5 mph18.5 kmh 29.71 in1006.1 mb 0.00 in0.0 mm 0.00 in0.0 mm 0.00 in0.0 mm
02:52 PM 40.4°F4.7°C 40.4°F4.7°C 100% 3.7 mph S6.0 kmh S 9.6 mph15.4 kmh 29.70 in1005.8 mb 0.00 in0.0 mm 0.00 in0.0 mm 0.00 in0.0 mm
03:28 PM 39.5°F4.2°C 39.5°F4.2°C 100% 6.9 mph S11.1 kmh S 10.0 mph16.1 kmh 29.69 in1005.4 mb 0.00 in0.0 mm 0.00 in0.0 mm 0.00 in0.0 mm
03:58 PM 39.0°F3.9°C 39.0°F3.9°C 100% 5.2 mph SSE8.4 kmh SSE 10.3 mph16.6 kmh 29.68 in1005.1 mb 0.00 in0.0 mm 0.00 in0.0 mm 0.00 in0.0 mm
04:28 PM 37.4°F3.0°C 37.4°F3.0°C 100% 9.0 mph SE14.5 kmh SE 13.4 mph21.6 kmh 29.68 in1005.1 mb 0.00 in0.0 mm 0.00 in0.0 mm 0.00 in0.0 mm
04:58 PM 36.8°F2.7°C 36.8°F2.7°C 100% 8.3 mph S13.4 kmh S 12.8 mph20.6 kmh 29.67 in1004.7 mb 0.00 in0.0 mm 0.00 in0.0 mm 0.00 in0.0 mm
05:28 PM 36.6°F2.6°C 36.6°F2.6°C 100% 8.1 mph SSE13.0 kmh SSE 12.1 mph19.5 kmh 29.67 in1004.7 mb 0.00 in0.0 mm 0.00 in0.0 mm 0.00 in0.0 mm
05:58 PM 36.3°F2.4°C 36.3°F2.4°C 100% 8.4 mph SSE13.5 kmh SSE 14.3 mph23.0 kmh 29.65 in1004.1 mb 0.00 in0.0 mm 0.00 in0.0 mm 0.00 in0.0 mm
06:28 PM 35.7°F2.1°C 35.7°F2.1°C 100% 7.1 mph SSE11.4 kmh SSE 12.1 mph19.5 kmh 29.66 in1004.4 mb 0.00 in0.0 mm 0.00 in0.0 mm 0.00 in0.0 mm
06:58 PM 35.4°F1.9°C 35.4°F1.9°C 100% 4.6 mph S7.4 kmh S 10.3 mph16.6 kmh 29.65 in1004.1 mb 0.00 in0.0 mm 0.00 in0.0 mm 0.00 in0.0 mm
07:28 PM 34.8°F1.6°C 34.8°F1.6°C 100% 6.2 mph S10.0 kmh S 11.5 mph18.5 kmh 29.64 in1003.7 mb 0.00 in0.0 mm 0.00 in0.0 mm 0.00 in0.0 mm
07:58 PM 34.3°F1.3°C 34.3°F1.3°C 100% 5.0 mph S8.0 kmh S 8.7 mph14.0 kmh 29.64 in1003.7 mb 0.00 in0.0 mm 0.00 in0.0 mm 0.00 in0.0 mm
08:28 PM 34.5°F1.4°C 34.5°F1.4°C 100% 7.9 mph S12.7 kmh S 13.1 mph21.1 kmh 29.63 in1003.4 mb 0.00 in0.0 mm 0.00 in0.0 mm 0.00 in0.0 mm
08:58 PM 34.5°F1.4°C 34.5°F1.4°C 100% 5.8 mph SSW9.3 kmh SSW 8.7 mph14.0 kmh 29.62 in1003.0 mb 0.00 in0.0 mm 0.00 in0.0 mm 0.00 in0.0 mm
09:28 PM 34.5°F1.4°C 34.5°F1.4°C 100% 4.1 mph SW6.6 kmh SW 8.1 mph13.0 kmh 29.61 in1002.7 mb 0.00 in0.0 mm 0.00 in0.0 mm 0.00 in0.0 mm
09:58 PM 35.0°F1.7°C 35.0°F1.7°C 100% 6.5 mph SSW10.5 kmh SSW 9.3 mph15.0 kmh 29.60 in1002.4 mb 0.00 in0.0 mm 0.00 in0.0 mm 0.00 in0.0 mm
10:28 PM 35.7°F2.1°C 35.7°F2.1°C 100% 7.2 mph SW11.6 kmh SW 10.6 mph17.1 kmh 29.59 in1002.0 mb 0.00 in0.0 mm 0.00 in0.0 mm 0.00 in0.0 mm
10:58 PM 35.6°F2.0°C 35.6°F2.0°C 100% 4.9 mph SSW7.9 kmh SSW 7.5 mph12.1 kmh 29.59 in1002.0 mb 0.00 in0.0 mm 0.00 in0.0 mm 0.00 in0.0 mm
11:28 PM 35.6°F2.0°C 35.6°F2.0°C 100% 5.9 mph SW9.5 kmh SW 8.4 mph13.5 kmh 29.58 in1001.7 mb 0.00 in0.0 mm 0.00 in0.0 mm 0.00 in0.0 mm
11:58 PM 37.0°F2.8°C 37.0°F2.8°C 100% 6.2 mph SW10.0 kmh SW 14.6 mph23.5 kmh 29.57 in1001.4 mb 0.00 in0.0 mm 0.00 in0.0 mm 0.00 in0.0 mm